createdAt,value
2023-03-11T00:01:01.629Z,4.70
2023-03-11T00:03:30.893Z,4.30
2023-03-11T00:06:04.073Z,5.15
2023-03-11T00:08:33.255Z,4.50
2023-03-11T00:11:02.948Z,4.03
2023-03-11T00:13:32.304Z,3.72
2023-03-11T00:16:04.454Z,4.60
2023-03-11T00:18:33.374Z,4.70
2023-03-11T00:21:02.742Z,3.95
2023-03-11T00:23:31.923Z,5.07
2023-03-11T00:26:02.650Z,4.25
2023-03-11T00:28:34.035Z,4.90
2023-03-11T00:31:03.614Z,4.53
2023-03-11T00:33:32.432Z,4.85
2023-03-11T00:36:01.191Z,4.93
2023-03-11T00:38:31.308Z,3.28
2023-03-11T00:41:03.009Z,4.63
2023-03-11T00:43:31.970Z,4.45
2023-03-11T00:46:00.707Z,3.92
2023-03-11T00:48:28.798Z,5.07
2023-03-11T00:50:57.153Z,3.60
2023-03-11T00:53:25.817Z,4.70
2023-03-11T00:55:54.543Z,5.38
2023-03-11T00:58:28.567Z,5.13
2023-03-11T01:00:57.303Z,4.93
2023-03-11T01:03:25.582Z,4.85
2023-03-11T01:05:55.152Z,5.00
2023-03-11T01:08:23.189Z,4.25
2023-03-11T01:10:51.964Z,4.47
2023-03-11T01:13:20.997Z,4.72
2023-03-11T01:15:49.747Z,4.78
2023-03-11T01:18:18.425Z,4.50
2023-03-11T01:20:47.222Z,4.90
2023-03-11T01:23:18.427Z,5.18
2023-03-11T01:25:47.044Z,5.50
2023-03-11T01:28:15.836Z,5.03
2023-03-11T01:30:45.090Z,5.10
2023-03-11T01:33:20.131Z,5.35
2023-03-11T01:35:51.889Z,5.50
2023-03-11T01:38:20.590Z,4.95
2023-03-11T01:40:51.608Z,5.55
2023-03-11T01:43:41.142Z,5.43
2023-03-11T01:46:16.063Z,5.32
2023-03-11T01:48:50.598Z,5.85
2023-03-11T01:51:34.307Z,6.18
2023-03-11T01:54:09.822Z,4.82
2023-03-11T01:56:40.256Z,4.53
2023-03-11T01:59:11.187Z,4.75
2023-03-11T02:01:47.243Z,4.45
2023-03-11T02:04:16.501Z,4.82
2023-03-11T02:06:45.356Z,5.38
2023-03-11T02:09:14.158Z,5.32
2023-03-11T02:11:42.988Z,5.25
2023-03-11T02:14:11.892Z,5.18
2023-03-11T02:16:40.310Z,5.70
2023-03-11T02:19:59.731Z,5.55
2023-03-11T02:22:31.593Z,5.18
2023-03-11T02:25:05.976Z,5.28
2023-03-11T02:27:37.561Z,5.70
2023-03-11T02:30:06.895Z,5.47
2023-03-11T02:32:35.537Z,5.97
2023-03-11T02:35:04.492Z,5.15
2023-03-11T02:37:33.268Z,6.07
2023-03-11T02:40:23.706Z,6.43
2023-03-11T02:42:54.795Z,5.53
2023-03-11T02:45:26.895Z,6.18
2023-03-11T02:47:58.009Z,5.78
2023-03-11T02:50:27.630Z,6.28
2023-03-11T02:52:56.390Z,6.78
2023-03-11T02:55:25.112Z,6.65
2023-03-11T02:57:53.863Z,7.07
2023-03-11T03:00:22.382Z,9.02
2023-03-11T03:02:54.905Z,8.40
2023-03-11T03:05:23.879Z,9.80
2023-03-11T03:07:53.168Z,9.45
2023-03-11T03:10:23.888Z,9.02
2023-03-11T03:12:53.860Z,8.60
2023-03-11T03:15:23.050Z,6.90
2023-03-11T03:17:53.157Z,7.32
2023-03-11T03:20:24.094Z,7.95
2023-03-11T03:22:52.946Z,8.00
2023-03-11T03:25:21.736Z,7.03
2023-03-11T03:27:51.063Z,8.07
2023-03-11T03:30:19.522Z,7.65
2023-03-11T03:32:48.334Z,6.80
2023-03-11T03:35:17.000Z,6.40
2023-03-11T03:37:45.775Z,5.32
2023-03-11T03:40:15.352Z,6.30
2023-03-11T03:42:44.065Z,5.40
2023-03-11T03:45:13.148Z,5.50
2023-03-11T03:47:41.993Z,5.63
2023-03-11T03:50:12.445Z,5.70
2023-03-11T03:52:41.191Z,5.88
2023-03-11T03:55:10.320Z,6.07
2023-03-11T03:57:39.020Z,6.07
2023-03-11T04:00:11.226Z,5.65
2023-03-11T04:02:40.052Z,6.15
2023-03-11T04:05:09.259Z,5.63
2023-03-11T04:07:38.405Z,5.90
2023-03-11T04:10:08.083Z,6.82
2023-03-11T04:12:36.821Z,6.00
2023-03-11T04:15:05.790Z,5.63
2023-03-11T04:17:34.413Z,5.45
2023-03-11T04:20:02.747Z,6.53
2023-03-11T04:22:31.008Z,6.00
2023-03-11T04:24:59.741Z,6.03
2023-03-11T04:27:28.562Z,5.85
2023-03-11T04:29:57.264Z,5.63
2023-03-11T04:32:26.117Z,6.60
2023-03-11T04:34:55.100Z,6.35
2023-03-11T04:37:23.826Z,6.38
2023-03-11T04:39:54.878Z,6.20
2023-03-11T04:42:22.940Z,5.88
2023-03-11T04:44:51.003Z,6.10
2023-03-11T04:47:19.952Z,6.25
2023-03-11T04:49:48.661Z,5.88
2023-03-11T04:52:17.322Z,6.45
2023-03-11T04:54:46.180Z,6.30
2023-03-11T04:57:14.867Z,5.95
2023-03-11T04:59:43.717Z,5.57
2023-03-11T05:02:12.998Z,6.20
2023-03-11T05:04:41.691Z,6.32
2023-03-11T05:07:10.427Z,5.82
2023-03-11T05:09:38.874Z,5.63
2023-03-11T05:12:08.073Z,5.70
2023-03-11T05:14:36.545Z,6.35
2023-03-11T05:17:05.383Z,5.80
2023-03-11T05:19:36.199Z,5.63
2023-03-11T05:22:05.719Z,5.45
2023-03-11T05:24:34.794Z,5.28
2023-03-11T05:27:03.740Z,5.97
2023-03-11T05:29:33.224Z,5.45
2023-03-11T05:32:01.944Z,6.13
2023-03-11T05:34:30.729Z,6.20
2023-03-11T05:37:01.479Z,5.65
2023-03-11T05:39:31.907Z,5.75
2023-03-11T05:42:00.397Z,6.05
2023-03-11T05:44:29.157Z,5.65
2023-03-11T05:46:58.061Z,6.35
2023-03-11T05:49:26.935Z,5.30
2023-03-11T05:51:58.140Z,5.85
2023-03-11T05:54:27.389Z,6.30
2023-03-11T05:56:57.199Z,5.75
2023-03-11T05:59:25.855Z,5.68
2023-03-11T06:01:54.626Z,5.20
2023-03-11T06:04:23.469Z,5.25
2023-03-11T06:06:52.175Z,5.80
2023-03-11T06:09:20.680Z,5.25
2023-03-11T06:11:50.810Z,5.50
2023-03-11T06:14:19.484Z,4.93
2023-03-11T06:16:48.280Z,5.28
2023-03-11T06:19:16.907Z,4.45
2023-03-11T06:21:45.658Z,4.80
2023-03-11T06:24:14.116Z,4.63
2023-03-11T06:26:42.830Z,4.30
2023-03-11T06:29:15.546Z,4.22
2023-03-11T06:31:44.502Z,3.93
2023-03-11T06:34:16.296Z,4.05
2023-03-11T06:36:44.987Z,3.88
2023-03-11T06:39:17.300Z,3.53
2023-03-11T06:41:45.999Z,3.90
2023-03-11T06:44:14.662Z,3.85
2023-03-11T06:46:43.444Z,3.35
2023-03-11T06:49:12.099Z,4.15
2023-03-11T06:51:40.989Z,3.75
2023-03-11T06:54:09.759Z,3.67
2023-03-11T06:56:39.284Z,3.72
2023-03-11T06:59:07.963Z,3.80
2023-03-11T07:01:36.769Z,3.72
2023-03-11T07:04:05.590Z,3.47
2023-03-11T07:06:34.322Z,4.32
2023-03-11T07:09:02.826Z,4.13
2023-03-11T07:11:31.915Z,3.28
2023-03-11T07:14:00.606Z,4.00
2023-03-11T07:16:31.319Z,3.90
2023-03-11T07:19:03.159Z,3.72
2023-03-11T07:21:33.260Z,4.15
2023-03-11T07:24:03.942Z,3.70
2023-03-11T07:26:34.051Z,3.83
2023-03-11T07:29:03.628Z,3.53
2023-03-11T07:31:34.311Z,4.20
2023-03-11T07:34:05.575Z,4.10
2023-03-11T07:36:34.611Z,4.05
2023-03-11T07:39:06.647Z,3.53
2023-03-11T07:41:37.529Z,3.63
2023-03-11T07:44:08.073Z,3.38
2023-03-11T07:46:38.157Z,3.88
2023-03-11T07:49:06.933Z,4.10
2023-03-11T07:51:38.281Z,3.88
2023-03-11T07:54:07.485Z,3.55
2023-03-11T07:56:37.020Z,3.70
2023-03-11T07:59:06.478Z,4.10
2023-03-11T08:01:37.553Z,3.83
2023-03-11T08:04:08.574Z,3.75
2023-03-11T08:06:38.549Z,4.03
2023-03-11T08:09:10.269Z,3.78
2023-03-11T08:11:39.511Z,3.97
2023-03-11T08:14:08.800Z,3.88
2023-03-11T08:16:37.570Z,3.13
2023-03-11T08:19:06.578Z,3.35
2023-03-11T08:21:35.289Z,3.55
2023-03-11T08:24:06.910Z,3.65
2023-03-11T08:26:35.486Z,3.50
2023-03-11T08:29:04.114Z,4.25
2023-03-11T08:31:35.603Z,3.60
2023-03-11T08:34:07.419Z,3.70
2023-03-11T08:36:36.488Z,3.60
2023-03-11T08:39:05.760Z,3.80
2023-03-11T08:41:34.497Z,3.60
2023-03-11T08:44:02.783Z,3.78
2023-03-11T08:46:32.519Z,4.05
2023-03-11T08:49:02.711Z,3.47
2023-03-11T08:51:33.481Z,3.65
2023-03-11T08:54:03.026Z,3.45
2023-03-11T08:56:31.897Z,3.20
2023-03-11T08:59:00.219Z,3.10
2023-03-11T09:01:30.606Z,3.28
2023-03-11T09:03:59.422Z,3.20
2023-03-11T09:06:27.462Z,2.97
2023-03-11T09:08:56.227Z,3.10
2023-03-11T09:11:25.247Z,3.50
2023-03-11T09:13:54.071Z,3.30
2023-03-11T09:16:24.738Z,3.20
2023-03-11T09:18:53.490Z,3.67
2023-03-11T09:21:22.398Z,2.90
2023-03-11T09:23:51.324Z,3.42
2023-03-11T09:26:20.170Z,3.10
2023-03-11T09:28:50.118Z,3.05
2023-03-11T09:31:19.060Z,2.97
2023-03-11T09:33:49.453Z,2.35
2023-03-11T09:36:20.267Z,2.80
2023-03-11T09:38:49.202Z,2.58
2023-03-11T09:41:55.257Z,2.55
2023-03-11T09:44:38.639Z,2.35
2023-03-11T09:47:31.307Z,2.63
2023-03-11T09:50:08.863Z,2.20
2023-03-11T09:52:52.015Z,3.03
2023-03-11T09:55:48.637Z,2.70
2023-03-11T09:58:28.420Z,2.50
2023-03-11T10:00:57.244Z,2.70
2023-03-11T10:03:39.733Z,2.53
2023-03-11T10:06:30.897Z,2.80
2023-03-11T10:09:29.916Z,2.80
2023-03-11T10:12:15.441Z,3.20
2023-03-11T10:14:52.831Z,3.30
2023-03-11T10:17:53.386Z,3.97
2023-03-11T10:20:29.625Z,3.55
2023-03-11T10:23:07.238Z,2.75
2023-03-11T10:26:31.174Z,2.80
2023-03-11T10:29:24.175Z,2.53
2023-03-11T10:32:00.053Z,3.25
2023-03-11T10:34:43.847Z,3.13
2023-03-11T10:37:18.169Z,2.83
2023-03-11T10:39:50.223Z,3.25
2023-03-11T10:42:26.080Z,2.60
2023-03-11T10:44:54.854Z,2.83
2023-03-11T10:47:26.573Z,3.00
2023-03-11T10:49:55.379Z,3.50
2023-03-11T10:52:24.103Z,2.95
2023-03-11T10:55:02.657Z,3.00
2023-03-11T10:57:31.483Z,2.50
2023-03-11T11:00:02.514Z,3.63
2023-03-11T11:02:43.877Z,2.65
2023-03-11T11:05:23.611Z,2.75
2023-03-11T11:07:54.682Z,3.13
2023-03-11T11:10:28.990Z,3.40
2023-03-11T11:13:23.174Z,3.35
2023-03-11T11:18:28.812Z,3.00
2023-03-11T11:21:00.097Z,3.35
2023-03-11T11:23:53.442Z,4.45
2023-03-11T11:26:24.805Z,5.32
2023-03-11T11:29:11.503Z,3.95
2023-03-11T11:31:42.551Z,4.25
2023-03-11T11:34:30.593Z,4.70
2023-03-11T11:37:01.361Z,5.10
2023-03-11T11:39:34.417Z,5.15
2023-03-11T11:42:03.912Z,5.38
2023-03-11T11:44:35.736Z,4.88
2023-03-11T11:47:21.159Z,4.60
2023-03-11T11:49:57.221Z,4.68
2023-03-11T11:52:55.748Z,4.38
2023-03-11T11:55:29.994Z,4.13
2023-03-11T11:57:59.013Z,5.18
2023-03-11T12:00:39.728Z,4.35
2023-03-11T12:03:09.865Z,4.63
2023-03-11T12:05:47.632Z,4.22
2023-03-11T12:08:36.315Z,3.83
2023-03-11T12:11:34.201Z,3.95
2023-03-11T12:14:13.959Z,4.15
2023-03-11T12:16:59.266Z,3.70
2023-03-11T12:19:37.174Z,4.30
2023-03-11T12:22:53.627Z,4.15
2023-03-11T12:25:27.478Z,4.03
2023-03-11T12:28:15.506Z,3.88
2023-03-11T12:30:51.338Z,4.00
2023-03-11T12:33:28.798Z,3.80
2023-03-11T12:35:59.290Z,4.20
2023-03-11T12:38:42.748Z,3.17
2023-03-11T12:41:18.923Z,3.40
2023-03-11T12:43:48.973Z,3.63
2023-03-11T12:46:21.826Z,3.53
2023-03-11T12:49:09.431Z,3.33
2023-03-11T12:51:40.580Z,3.15
2023-03-11T12:54:35.649Z,3.40
2023-03-11T12:57:34.301Z,2.78
2023-03-11T13:00:09.546Z,3.33
2023-03-11T13:03:16.033Z,3.40
2023-03-11T13:06:22.744Z,3.60
2023-03-11T13:08:56.253Z,2.90
2023-03-11T13:14:25.274Z,3.10
2023-03-11T13:16:53.758Z,3.00
2023-03-11T13:19:28.465Z,3.25
2023-03-11T13:22:00.898Z,3.40
2023-03-11T13:24:31.366Z,3.17
2023-03-11T13:27:06.119Z,3.67
2023-03-11T13:30:02.065Z,3.78
2023-03-11T13:33:04.472Z,3.05
2023-03-11T13:35:38.948Z,2.92
2023-03-11T13:38:32.613Z,3.80
2023-03-11T13:41:04.578Z,3.42
2023-03-11T13:43:33.295Z,3.50
2023-03-11T13:46:28.207Z,3.15
2023-03-11T13:49:04.922Z,3.60
2023-03-11T13:51:47.148Z,3.03
2023-03-11T13:54:21.347Z,3.47
2023-03-11T13:57:04.269Z,3.45
2023-03-11T13:59:37.016Z,3.30
2023-03-11T14:02:08.830Z,3.87
2023-03-11T14:04:41.739Z,3.88
2023-03-11T14:07:22.539Z,4.32
2023-03-11T14:09:51.357Z,4.28
2023-03-11T14:12:20.371Z,4.07
2023-03-11T14:14:54.459Z,4.30
2023-03-11T14:17:24.297Z,4.60
2023-03-11T14:20:23.642Z,3.92
2023-03-11T14:22:54.136Z,3.40
2023-03-11T14:25:32.493Z,4.10
2023-03-11T14:28:03.710Z,4.05
2023-03-11T14:30:36.397Z,4.43
2023-03-11T14:33:22.038Z,4.03
2023-03-11T14:35:59.086Z,4.50
2023-03-11T14:38:33.228Z,3.65
2023-03-11T14:41:05.718Z,3.88
2023-03-11T14:43:37.147Z,3.90
2023-03-11T14:46:06.845Z,3.53
2023-03-11T14:48:41.450Z,4.13
2023-03-11T14:51:16.636Z,3.10
2023-03-11T14:53:49.177Z,3.83
2023-03-11T14:56:23.245Z,3.88
2023-03-11T14:59:07.417Z,3.72
2023-03-11T15:01:43.745Z,4.15
2023-03-11T15:04:25.183Z,4.15
2023-03-11T15:06:54.029Z,3.67
2023-03-11T15:09:24.451Z,3.63
2023-03-11T15:11:56.595Z,3.92
2023-03-11T15:14:26.822Z,3.90
2023-03-11T15:16:57.295Z,4.00
2023-03-11T15:19:34.157Z,3.80
2023-03-11T15:22:25.932Z,3.97
2023-03-11T15:24:57.181Z,3.60
2023-03-11T15:27:35.128Z,3.20
2023-03-11T15:30:06.420Z,3.80
2023-03-11T15:32:39.165Z,3.70
2023-03-11T15:35:12.515Z,3.38
2023-03-11T15:37:42.995Z,3.80
2023-03-11T15:40:44.109Z,3.10
2023-03-11T15:43:17.156Z,3.53
2023-03-11T15:45:46.066Z,3.35
2023-03-11T15:48:14.802Z,3.30
2023-03-11T15:50:55.157Z,3.17
2023-03-11T15:53:25.074Z,3.28
2023-03-11T15:56:06.887Z,3.63
2023-03-11T15:58:37.563Z,4.10
2023-03-11T16:01:06.433Z,4.35
2023-03-11T16:03:34.807Z,4.38
2023-03-11T16:06:03.472Z,3.95
2023-03-11T16:08:31.956Z,4.57
2023-03-11T16:11:01.368Z,3.58
2023-03-11T16:13:29.964Z,3.40
2023-03-11T16:15:58.708Z,4.05
2023-03-11T16:18:27.048Z,3.78
2023-03-11T16:20:56.302Z,4.47
2023-03-11T16:23:36.168Z,4.10
2023-03-11T16:26:12.633Z,5.70
2023-03-11T16:28:41.611Z,5.70
2023-03-11T16:31:11.185Z,5.03
2023-03-11T16:33:39.912Z,5.03
2023-03-11T16:36:08.954Z,5.20
2023-03-11T16:38:51.471Z,5.88
2023-03-11T16:41:19.948Z,5.25
2023-03-11T16:43:48.611Z,5.28
2023-03-11T16:46:17.406Z,5.05
2023-03-11T16:48:46.286Z,5.43
2023-03-11T16:51:14.588Z,4.85
2023-03-11T16:53:43.401Z,5.53
2023-03-11T16:56:12.276Z,4.95
2023-03-11T16:58:41.077Z,5.03
2023-03-11T17:01:09.857Z,4.18
2023-03-11T17:03:42.858Z,4.30
2023-03-11T17:06:12.115Z,5.00
2023-03-11T17:08:40.654Z,4.70
2023-03-11T17:11:17.097Z,4.85
2023-03-11T17:13:45.615Z,5.28
2023-03-11T17:16:14.903Z,4.85
2023-03-11T17:18:44.052Z,5.40
2023-03-11T17:21:15.396Z,5.38
2023-03-11T17:23:47.549Z,4.97
2023-03-11T17:26:18.137Z,5.47
2023-03-11T17:28:46.952Z,5.80
2023-03-11T17:31:16.625Z,5.20
2023-03-11T17:33:45.732Z,5.40
2023-03-11T17:36:17.726Z,6.38
2023-03-11T17:38:52.801Z,5.95
2023-03-11T17:41:22.209Z,5.95
2023-03-11T17:43:51.614Z,6.78
2023-03-11T17:46:21.944Z,6.22
2023-03-11T17:48:51.635Z,5.80
2023-03-11T17:51:23.302Z,6.13
2023-03-11T17:53:52.440Z,5.55
2023-03-11T17:56:22.471Z,6.10
2023-03-11T17:58:52.311Z,6.72
2023-03-11T18:01:26.566Z,5.70
2023-03-11T18:03:55.707Z,5.82
2023-03-11T18:06:24.694Z,5.68
2023-03-11T18:08:53.253Z,5.85
2023-03-11T18:11:24.293Z,5.22
2023-03-11T18:13:53.210Z,4.95
2023-03-11T18:16:24.417Z,5.10
2023-03-11T18:18:53.610Z,4.80
2023-03-11T18:21:24.925Z,4.60
2023-03-11T18:23:58.848Z,4.38
2023-03-11T18:26:29.584Z,4.38
2023-03-11T18:28:59.765Z,5.05
2023-03-11T18:31:30.024Z,4.82
2023-03-11T18:34:02.088Z,4.55
2023-03-11T18:36:36.152Z,4.50
2023-03-11T18:39:05.973Z,3.85
2023-03-11T18:41:36.998Z,4.82
2023-03-11T18:44:06.264Z,3.97
2023-03-11T18:46:35.240Z,3.92
2023-03-11T18:49:05.314Z,3.90
2023-03-11T18:51:34.648Z,3.35
2023-03-11T18:54:03.645Z,3.97
2023-03-11T18:56:32.632Z,3.83
2023-03-11T18:59:02.547Z,3.55
2023-03-11T19:01:31.846Z,4.38
2023-03-11T19:04:01.920Z,3.80
2023-03-11T19:06:31.516Z,4.15
2023-03-11T19:09:00.472Z,3.35
2023-03-11T19:11:28.872Z,3.53
2023-03-11T19:13:57.600Z,3.92
2023-03-11T19:16:27.894Z,3.65
2023-03-11T19:18:57.220Z,4.38
2023-03-11T19:21:27.277Z,4.20
2023-03-11T19:23:57.976Z,5.15
2023-03-11T19:26:43.270Z,4.85
2023-03-11T19:29:13.142Z,5.28
2023-03-11T19:31:42.894Z,4.68
2023-03-11T19:34:11.579Z,4.88
2023-03-11T19:36:40.990Z,4.32
2023-03-11T19:39:09.973Z,4.82
2023-03-11T19:41:38.218Z,4.20
2023-03-11T19:44:07.089Z,5.25
2023-03-11T19:46:37.762Z,4.22
2023-03-11T19:49:06.647Z,4.97
2023-03-11T19:51:49.244Z,4.95
2023-03-11T19:54:20.042Z,4.07
2023-03-11T19:56:49.495Z,4.90
2023-03-11T19:59:18.588Z,4.10
2023-03-11T20:01:47.431Z,4.55
2023-03-11T20:04:16.445Z,4.85
2023-03-11T20:06:45.694Z,4.07
2023-03-11T20:09:14.890Z,5.75
2023-03-11T20:11:44.070Z,4.80
2023-03-11T20:14:13.909Z,4.78
2023-03-11T20:16:42.523Z,4.70
2023-03-11T20:19:12.495Z,5.07
2023-03-11T20:21:44.587Z,5.32
2023-03-11T20:24:14.385Z,4.82
2023-03-11T20:26:42.781Z,5.25
2023-03-11T20:29:11.782Z,5.20
2023-03-11T20:31:40.770Z,4.80
2023-03-11T20:34:09.543Z,5.13
2023-03-11T20:36:38.069Z,5.40
2023-03-11T20:39:10.273Z,4.50
2023-03-11T20:41:41.008Z,5.00
2023-03-11T20:44:12.409Z,5.50
2023-03-11T20:46:40.965Z,5.82
2023-03-11T20:49:09.791Z,5.70
2023-03-11T20:51:41.053Z,5.10
2023-03-11T20:54:10.754Z,5.65
2023-03-11T20:56:39.239Z,5.95
2023-03-11T20:59:08.211Z,6.07
2023-03-11T21:01:38.365Z,6.00
2023-03-11T21:04:07.638Z,5.28
2023-03-11T21:06:38.974Z,5.88
2023-03-11T21:09:09.896Z,5.43
2023-03-11T21:11:39.150Z,6.07
2023-03-11T21:14:10.769Z,5.50
2023-03-11T21:16:40.131Z,5.28
2023-03-11T21:19:11.628Z,6.15
2023-03-11T21:21:40.635Z,5.63
2023-03-11T21:24:09.811Z,5.80
2023-03-11T21:26:38.221Z,6.05
2023-03-11T21:29:06.783Z,5.88
2023-03-11T21:31:36.020Z,5.03
2023-03-11T21:34:04.993Z,5.63
2023-03-11T21:36:34.052Z,4.90
2023-03-11T21:39:03.825Z,5.70
2023-03-11T21:41:32.812Z,5.25
2023-03-11T21:44:01.654Z,5.90
2023-03-11T21:46:33.317Z,5.03
2023-03-11T21:49:02.399Z,5.20
2023-03-11T21:51:31.239Z,5.45
2023-03-11T21:54:00.815Z,5.03
2023-03-11T21:56:30.092Z,5.30
2023-03-11T21:58:59.225Z,5.90
2023-03-11T22:01:28.209Z,5.28
2023-03-11T22:03:57.933Z,5.63
2023-03-11T22:06:26.992Z,5.43
2023-03-11T22:08:55.589Z,5.47
2023-03-11T22:11:25.797Z,5.57
2023-03-11T22:13:57.009Z,4.88
2023-03-11T22:16:26.759Z,5.60
2023-03-11T22:18:56.020Z,5.10
2023-03-11T22:21:24.951Z,4.55
2023-03-11T22:23:53.597Z,5.05
2023-03-11T22:26:22.493Z,4.55
2023-03-11T22:28:51.121Z,5.28
2023-03-11T22:31:20.305Z,4.95
2023-03-11T22:33:49.318Z,4.97
2023-03-11T22:36:18.132Z,4.72
2023-03-11T22:38:47.241Z,3.90
2023-03-11T22:41:17.949Z,4.05
2023-03-11T22:43:47.021Z,4.55
2023-03-11T22:46:15.947Z,3.85
2023-03-11T22:48:45.188Z,3.88
2023-03-11T22:51:14.508Z,3.80
2023-03-11T22:53:43.257Z,4.00
2023-03-11T22:56:16.218Z,4.55
2023-03-11T22:58:45.878Z,3.75
2023-03-11T23:01:14.798Z,3.80
2023-03-11T23:03:43.787Z,3.97
2023-03-11T23:06:16.076Z,3.90
2023-03-11T23:08:45.125Z,4.13
2023-03-11T23:11:17.032Z,3.80
2023-03-11T23:13:46.094Z,3.75
2023-03-11T23:16:19.945Z,3.80
2023-03-11T23:18:49.752Z,3.80
2023-03-11T23:21:37.422Z,3.78
2023-03-11T23:24:07.502Z,3.85
2023-03-11T23:26:36.980Z,3.28
2023-03-11T23:29:06.554Z,3.33
2023-03-11T23:31:35.377Z,3.92
2023-03-11T23:34:04.156Z,3.60
2023-03-11T23:36:32.912Z,3.58
2023-03-11T23:39:01.648Z,3.38
2023-03-11T23:41:31.572Z,4.10
2023-03-11T23:44:00.429Z,4.30
2023-03-11T23:46:29.215Z,4.30
2023-03-11T23:48:57.618Z,4.60
2023-03-11T23:51:26.464Z,4.13
2023-03-11T23:53:54.826Z,4.95
2023-03-11T23:56:23.594Z,4.00
2023-03-11T23:58:52.412Z,4.20
